Time;durP1;ratioP1;P1;durP2;ratioP2;P2;SDS_P1;SDS_P2;PMS_P1;PMS_P2;Temp;Humidity;BMP_temperature;BMP_pressure;BME280_temperature;BME280_humidity;BME280_pressure;Samples;Min_cycle;Max_cycle;Signal;HPM_P1;HPM_P2
2022/03/24 00:01:41;;;;;;;19.17;5.43;;;;;;;6.13;39.55;100725.16;5094464;28;20052;-80
2022/03/24 00:04:07;;;;;;;21.63;5.95;;;;;;;6.02;39.43;100712.78;5097258;28;20055;-79
2022/03/24 00:06:33;;;;;;;16.10;5.40;;;;;;;5.88;39.66;100707.63;5096202;28;20059;-82
2022/03/24 00:08:59;;;;;;;20.50;5.63;;;;;;;5.83;40.26;100723.72;5094430;28;20023;-82
2022/03/24 00:11:24;;;;;;;22.17;5.72;;;;;;;5.58;40.32;100705.34;5095351;28;20027;-79
2022/03/24 00:13:50;;;;;;;21.35;5.97;;;;;;;5.57;40.06;100688.75;5096965;28;20024;-82
2022/03/24 00:16:17;;;;;;;13.75;4.72;;;;;;;5.77;40.00;100708.38;5094569;28;20085;-79
2022/03/24 00:18:43;;;;;;;30.65;7.72;;;;;;;5.95;39.51;100711.53;5096687;28;20046;-83
2022/03/24 00:21:09;;;;;;;18.85;5.97;;;;;;;5.82;39.80;100677.34;5094481;28;20100;-82
2022/03/24 00:23:34;;;;;;;17.13;5.38;;;;;;;6.01;40.41;100688.25;5096136;28;20040;-80
2022/03/24 00:26:00;;;;;;;13.60;4.45;;;;;;;6.02;39.34;100692.56;5096399;28;20052;-79
2022/03/24 00:28:26;;;;;;;13.80;4.95;;;;;;;5.94;39.59;100694.91;5094467;28;20305;-79
2022/03/24 00:30:51;;;;;;;13.60;4.90;;;;;;;6.06;38.95;100694.03;5095972;28;20282;-82
2022/03/24 00:33:18;;;;;;;13.63;4.82;;;;;;;6.20;38.92;100674.63;5095316;28;21520;-79
2022/03/24 00:35:43;;;;;;;14.35;5.50;;;;;;;6.25;38.19;100683.06;5095443;28;20172;-79
2022/03/24 00:38:09;;;;;;;15.65;5.22;;;;;;;6.02;39.06;100660.19;5093797;28;20024;-79
2022/03/24 00:40:34;;;;;;;18.95;5.22;;;;;;;6.18;39.98;100680.94;5094262;28;20110;-79
2022/03/24 00:43:01;;;;;;;15.82;5.63;;;;;;;5.83;40.48;100670.31;5096526;28;20099;-80
2022/03/24 00:45:27;;;;;;;18.95;5.60;;;;;;;5.24;41.50;100644.66;5094360;28;20039;-82
2022/03/24 00:47:53;;;;;;;17.08;6.22;;;;;;;5.53;41.24;100673.31;5094081;28;20016;-82
2022/03/24 00:50:19;;;;;;;15.18;5.50;;;;;;;5.56;40.86;100679.19;5095498;28;20032;-79
2022/03/24 00:52:45;;;;;;;14.65;5.03;;;;;;;5.49;40.63;100667.44;5094699;28;20041;-77
2022/03/24 00:55:20;;;;;;;21.45;5.95;;;;;;;5.29;40.29;100654.84;5094268;28;20032;-81
2022/03/24 00:57:55;;;;;;;;;;;;;;;5.39;41.22;100667.22;5095236;28;20024;-84
2022/03/24 01:00:22;;;;;;;25.10;5.93;;;;;;;5.34;41.11;100626.47;5093661;28;19916;-81
2022/03/24 01:02:49;;;;;;;25.95;7.78;;;;;;;5.61;41.28;100648.19;5089779;28;20027;-86
2022/03/24 01:05:16;;;;;;;26.77;6.47;;;;;;;5.70;41.67;100655.41;5085598;28;20025;-80
2022/03/24 01:07:45;;;;;;;14.80;5.53;;;;;;;5.80;40.39;100652.97;5084684;28;20020;-84
2022/03/24 01:10:13;;;;;;;12.57;4.90;;;;;;;5.66;40.27;100638.19;5088719;28;20032;-79
2022/03/24 01:12:39;;;;;;;13.40;4.80;;;;;;;5.82;39.78;100648.44;5085144;28;20374;-78
2022/03/24 01:15:10;;;;;;;13.63;5.15;;;;;;;5.70;40.08;100630.91;5085251;28;20066;-76
2022/03/24 01:17:36;;;;;;;19.08;6.32;;;;;;;5.83;40.70;100636.97;5088828;28;20361;-78
2022/03/24 01:20:04;;;;;;;23.52;7.03;;;;;;;5.92;40.32;100638.13;5090689;28;20012;-82
2022/03/24 01:22:29;;;;;;;24.20;7.63;;;;;;;5.78;40.76;100641.72;5084558;28;20051;-79
2022/03/24 01:24:56;;;;;;;19.95;6.85;;;;;;;5.81;40.55;100633.63;5086998;28;20334;-79
2022/03/24 01:27:25;;;;;;;46.47;9.68;;;;;;;5.87;40.78;100632.34;5089659;28;20040;-82
2022/03/24 01:29:54;;;;;;;33.85;8.20;;;;;;;5.92;39.88;100633.72;5090118;28;20172;-82
2022/03/24 01:32:20;;;;;;;32.25;8.90;;;;;;;5.88;40.51;100624.34;5085597;28;20354;-79
2022/03/24 01:34:45;;;;;;;51.72;13.35;;;;;;;5.69;40.93;100602.97;5085560;28;20054;-79
2022/03/24 01:37:11;;;;;;;18.95;6.28;;;;;;;5.65;41.30;100589.22;5085232;28;20203;-79
2022/03/24 01:39:37;;;;;;;17.73;5.82;;;;;;;5.77;41.33;100595.38;5084307;28;20028;-79
2022/03/24 01:42:05;;;;;;;20.30;6.63;;;;;;;5.73;41.43;100580.78;5086425;28;20371;-81
2022/03/24 01:44:31;;;;;;;17.00;6.35;;;;;;;5.14;42.90;100604.19;5082769;28;20040;-78
2022/03/24 01:47:02;;;;;;;13.15;5.35;;;;;;;5.13;43.22;100616.50;5086830;28;20275;-83
2022/03/24 01:49:31;;;;;;;18.00;5.38;;;;;;;5.17;43.52;100619.75;5090378;28;20044;-78
2022/03/24 01:51:57;;;;;;;22.08;6.10;;;;;;;5.28;42.68;100621.66;5083302;28;20321;-78
2022/03/24 01:54:25;;;;;;;19.00;6.60;;;;;;;5.22;42.87;100611.56;5086506;28;20028;-83
2022/03/24 01:56:51;;;;;;;24.65;8.30;;;;;;;5.26;42.79;100613.03;5085293;28;20044;-82
2022/03/24 01:59:19;;;;;;;24.65;8.02;;;;;;;5.53;42.88;100612.88;5084020;28;20315;-79
2022/03/24 02:01:45;;;;;;;25.15;7.93;;;;;;;5.71;43.10;100608.94;5088386;28;20036;-79
2022/03/24 02:04:11;;;;;;;18.95;6.28;;;;;;;5.63;43.88;100613.91;5095699;28;20040;-79
2022/03/24 02:06:37;;;;;;;22.38;7.10;;;;;;;5.56;44.33;100618.75;5092290;28;20347;-79
2022/03/24 02:09:04;;;;;;;30.98;9.48;;;;;;;5.40;44.80;100620.78;5091094;28;20040;-79
2022/03/24 02:11:36;;;;;;;25.52;7.95;;;;;;;5.49;45.22;100614.06;5089536;28;20040;-82
2022/03/24 02:14:04;;;;;;;20.88;8.32;;;;;;;5.54;45.24;100607.53;5093541;28;20028;-78
2022/03/24 02:16:34;;;;;;;20.52;9.07;;;;;;;5.32;46.03;100588.97;5104510;28;20083;-78
2022/03/24 02:19:15;;;;;;;20.73;10.35;;;;;;;5.50;45.42;100592.94;5099491;28;20047;-82
2022/03/24 02:21:42;;;;;;;19.48;8.35;;;;;;;5.61;45.88;100608.78;5085439;28;20094;-79
2022/03/24 02:24:08;;;;;;;33.08;11.35;;;;;;;5.47;46.49;100601.03;5092299;28;20040;-79
2022/03/24 02:26:36;;;;;;;33.72;12.02;;;;;;;5.32;46.75;100602.09;5091262;28;20040;-79
2022/03/24 02:29:06;;;;;;;28.90;10.30;;;;;;;5.05;47.39;100592.56;5085655;28;20035;-79
2022/03/24 02:31:33;;;;;;;25.58;9.40;;;;;;;5.07;47.58;100592.44;5122214;27;20030;-82
2022/03/24 02:36:45;;;;;;;30.15;11.35;;;;;;;5.34;47.84;100601.06;5090195;28;20051;-78
2022/03/24 02:39:11;;;;;;;24.25;10.25;;;;;;;5.02;48.55;100592.75;5089897;28;20094;-82
2022/03/24 02:41:48;;;;;;;26.67;10.98;;;;;;;5.14;48.13;100570.91;5088776;28;20036;-82
2022/03/24 02:44:17;;;;;;;27.42;9.73;;;;;;;4.76;47.46;100546.50;5087192;28;20047;-81
2022/03/24 02:46:43;;;;;;;30.67;11.25;;;;;;;4.73;48.24;100565.06;5090888;28;20031;-79
2022/03/24 02:49:09;;;;;;;28.92;10.70;;;;;;;4.94;49.16;100591.63;5087496;28;20036;-79
2022/03/24 02:51:36;;;;;;;25.67;10.93;;;;;;;4.70;49.83;100597.59;5089011;28;20035;-79
2022/03/24 02:54:03;;;;;;;41.63;12.95;;;;;;;4.04;51.74;100595.84;5092425;28;20091;-82
2022/03/24 02:56:29;;;;;;;37.88;13.02;;;;;;;4.16;51.50;100565.38;5083774;28;20043;-79
2022/03/24 02:58:55;;;;;;;30.98;11.63;;;;;;;4.69;50.60;100592.44;5089656;28;20020;-82
2022/03/24 03:01:21;;;;;;;25.38;10.70;;;;;;;4.27;51.41;100572.56;5089172;28;20040;-83
2022/03/24 03:03:46;;;;;;;26.17;11.40;;;;;;;4.57;51.36;100606.38;5087580;28;20307;-83
2022/03/24 03:06:13;;;;;;;25.52;10.45;;;;;;;4.42;50.86;100548.78;5088052;28;20051;-79
2022/03/24 03:08:38;;;;;;;25.33;10.88;;;;;;;4.85;50.34;100576.50;5086167;28;20062;-82
2022/03/24 03:11:04;;;;;;;23.80;9.68;;;;;;;4.68;50.55;100575.88;5090425;28;20048;-79
2022/03/24 03:13:29;;;;;;;22.20;10.23;;;;;;;4.72;49.34;100571.25;5088786;28;20035;-79
2022/03/24 03:15:55;;;;;;;30.20;11.15;;;;;;;4.43;49.19;100555.72;5085236;28;20037;-81
2022/03/24 03:18:20;;;;;;;120.93;23.60;;;;;;;4.66;49.15;100587.41;5087915;28;20040;-81
2022/03/24 03:20:47;;;;;;;70.53;15.50;;;;;;;4.67;48.30;100581.22;5089156;28;20036;-78
2022/03/24 03:23:13;;;;;;;23.10;8.32;;;;;;;4.64;48.26;100574.41;5098513;28;20027;-82
2022/03/24 03:25:38;;;;;;;23.83;9.35;;;;;;;4.66;48.04;100574.28;5090929;28;20258;-79
2022/03/24 03:28:06;;;;;;;26.85;9.07;;;;;;;4.44;48.27;100577.53;5084605;28;20040;-82
2022/03/24 03:30:32;;;;;;;26.48;9.27;;;;;;;4.16;48.91;100579.34;5090618;28;20031;-79
2022/03/24 03:32:58;;;;;;;25.38;9.30;;;;;;;4.01;49.31;100577.72;5086784;28;20017;-79
2022/03/24 03:35:23;;;;;;;27.88;9.48;;;;;;;4.22;48.87;100578.13;5088213;28;20044;-79
2022/03/24 03:37:48;;;;;;;20.80;8.80;;;;;;;4.32;48.69;100576.56;5084947;28;20031;-80
2022/03/24 03:40:14;;;;;;;18.30;8.27;;;;;;;4.33;48.94;100583.47;5085409;28;20223;-78
2022/03/24 03:42:39;;;;;;;29.33;10.63;;;;;;;4.43;48.15;100573.22;5089065;28;20095;-78
2022/03/24 03:45:05;;;;;;;29.73;11.82;;;;;;;4.65;47.68;100575.25;5088073;28;20093;-82
2022/03/24 03:47:31;;;;;;;29.33;12.40;;;;;;;4.53;48.28;100576.91;5088138;28;20052;-81
2022/03/24 03:49:57;;;;;;;26.42;9.70;;;;;;;4.40;48.48;100576.06;5089711;28;20044;-79
2022/03/24 03:52:22;;;;;;;29.55;11.15;;;;;;;4.31;48.20;100556.53;5086120;28;20035;-79
2022/03/24 03:54:48;;;;;;;63.35;14.32;;;;;;;4.14;49.08;100577.75;5088521;28;20226;-79
2022/03/24 03:57:13;;;;;;;30.27;11.73;;;;;;;4.15;48.96;100577.66;5103304;28;20074;-79
2022/03/24 03:59:39;;;;;;;51.92;16.38;;;;;;;3.93;49.30;100572.13;5100996;28;20035;-79
2022/03/24 04:02:05;;;;;;;40.20;13.50;;;;;;;3.94;49.67;100539.75;5088891;28;20059;-79
2022/03/24 04:04:31;;;;;;;25.43;9.83;;;;;;;3.84;49.60;100529.03;5087449;28;20016;-79
2022/03/24 04:06:56;;;;;;;40.05;10.88;;;;;;;3.89;49.55;100554.94;5083634;28;20070;-82
2022/03/24 04:09:22;;;;;;;27.60;9.07;;;;;;;4.02;49.45;100563.66;5085020;28;20341;-82
2022/03/24 04:11:47;;;;;;;47.27;12.13;;;;;;;4.20;48.83;100574.75;5086131;28;20032;-82
2022/03/24 04:14:13;;;;;;;32.07;10.47;;;;;;;3.91;49.28;100524.22;5091814;28;20199;-79
2022/03/24 04:16:39;;;;;;;27.87;10.20;;;;;;;4.21;49.19;100552.00;5084962;28;20134;-79
2022/03/24 04:19:05;;;;;;;24.80;8.40;;;;;;;4.37;48.90;100571.00;5086148;28;20031;-79
2022/03/24 04:21:31;;;;;;;24.45;10.05;;;;;;;4.27;47.76;100544.56;5085648;28;20046;-79
2022/03/24 04:23:56;;;;;;;22.85;9.75;;;;;;;4.27;47.77;100555.06;5084265;28;20036;-79
2022/03/24 04:26:22;;;;;;;30.97;9.93;;;;;;;4.01;49.17;100559.38;5082272;28;20029;-82
2022/03/24 04:28:47;;;;;;;31.80;11.50;;;;;;;3.87;49.99;100559.44;5082039;28;20198;-82
2022/03/24 04:31:13;;;;;;;37.22;15.13;;;;;;;4.15;50.00;100559.28;5089860;28;20036;-82
2022/03/24 04:33:39;;;;;;;40.83;16.40;;;;;;;4.23;49.74;100563.22;5083200;28;20009;-81
2022/03/24 04:36:08;;;;;;;44.38;13.93;;;;;;;4.16;49.32;100553.16;5100259;28;20106;-82
2022/03/24 04:38:35;;;;;;;24.23;9.67;;;;;;;4.03;49.71;100554.88;5086768;28;20281;-79
2022/03/24 04:41:01;;;;;;;28.83;10.10;;;;;;;3.84;50.32;100538.66;5085912;28;20063;-79
2022/03/24 04:43:26;;;;;;;33.53;11.20;;;;;;;3.83;50.04;100544.84;5082473;28;20032;-79
2022/03/24 04:45:52;;;;;;;57.70;16.57;;;;;;;3.65;50.75;100502.34;5086202;28;20064;-79
2022/03/24 04:48:18;;;;;;;45.57;13.70;;;;;;;3.86;50.57;100542.03;5090044;28;20031;-80
2022/03/24 04:50:44;;;;;;;70.27;17.47;;;;;;;4.01;50.21;100559.38;5118495;27;20024;-82
2022/03/24 04:53:14;;;;;;;41.40;14.20;;;;;;;4.08;50.23;100554.56;5117276;27;20082;-81
2022/03/24 04:55:40;;;;;;;59.13;17.87;;;;;;;4.13;49.95;100568.19;5085024;28;20100;-82
2022/03/24 04:58:06;;;;;;;61.70;19.23;;;;;;;4.21;49.72;100565.94;5087333;28;20040;-79
2022/03/24 05:00:32;;;;;;;50.38;15.15;;;;;;;4.14;49.15;100555.00;5086375;28;20052;-82
2022/03/24 05:02:59;;;;;;;65.80;20.67;;;;;;;4.33;49.34;100570.38;5083317;28;20070;-79
2022/03/24 05:05:24;;;;;;;38.73;12.77;;;;;;;4.72;48.43;100571.25;5089552;28;20105;-79
2022/03/24 05:07:50;;;;;;;46.30;15.23;;;;;;;4.71;47.95;100561.72;5089208;28;20059;-79
2022/03/24 05:10:16;;;;;;;52.60;16.77;;;;;;;4.41;48.24;100562.00;5088785;28;20310;-79
2022/03/24 05:12:42;;;;;;;41.30;12.40;;;;;;;4.53;48.09;100566.41;5088371;28;20039;-78
2022/03/24 05:15:09;;;;;;;57.50;14.65;;;;;;;4.82;47.89;100567.91;5082198;28;20036;-78
2022/03/24 05:17:36;;;;;;;48.58;13.48;;;;;;;4.95;48.10;100559.19;5081178;28;20146;-82
2022/03/24 05:20:02;;;;;;;37.33;12.60;;;;;;;4.77;48.43;100554.25;5083482;28;20113;-78
2022/03/24 05:22:27;;;;;;;19.25;8.63;;;;;;;4.89;49.04;100551.72;5081666;28;20033;-82
2022/03/24 05:24:53;;;;;;;33.55;10.60;;;;;;;5.25;48.57;100536.06;5082562;28;20278;-79
2022/03/24 05:27:18;;;;;;;22.88;8.20;;;;;;;4.87;49.77;100516.88;5082962;28;20032;-79
2022/03/24 05:29:44;;;;;;;21.70;8.60;;;;;;;4.93;49.62;100537.44;5082888;28;20029;-79
2022/03/24 05:32:09;;;;;;;25.75;10.98;;;;;;;5.26;49.18;100539.53;5082913;28;20142;-79
2022/03/24 05:34:35;;;;;;;31.98;12.73;;;;;;;5.37;48.70;100545.69;5082412;28;20032;-78
2022/03/24 05:37:01;;;;;;;45.67;17.55;;;;;;;5.71;47.85;100536.22;5082579;28;20039;-78
2022/03/24 05:39:26;;;;;;;30.02;10.23;;;;;;;6.05;47.83;100547.75;5081438;28;20054;-82
2022/03/24 05:41:52;;;;;;;45.17;15.68;;;;;;;6.11;47.20;100514.91;5081681;28;20028;-78
2022/03/24 05:44:17;;;;;;;62.80;17.30;;;;;;;6.58;46.08;100544.69;5082657;28;20025;-85
2022/03/24 05:46:44;;;;;;;67.28;15.23;;;;;;;6.95;45.18;100514.56;5082660;28;20036;-79
2022/03/24 05:49:15;;;;;;;42.67;14.68;;;;;;;7.32;44.97;100549.41;5082598;28;20039;-79
2022/03/24 05:51:44;;;;;;;32.60;11.57;;;;;;;7.32;44.04;100509.91;5082550;28;20076;-79
2022/03/24 05:54:12;;;;;;;59.63;15.55;;;;;;;7.42;44.63;100552.16;5081537;28;20028;-83
2022/03/24 05:56:38;;;;;;;56.88;15.98;;;;;;;7.87;43.81;100531.78;5082473;28;20032;-79
2022/03/24 05:59:03;;;;;;;63.17;15.73;;;;;;;8.22;43.06;100525.41;5082582;28;20226;-80
2022/03/24 06:01:29;;;;;;;35.42;10.32;;;;;;;8.64;42.35;100542.97;5082476;28;20045;-80
2022/03/24 06:03:55;;;;;;;35.05;11.20;;;;;;;9.10;41.95;100543.47;5082409;28;20175;-79
2022/03/24 06:06:22;;;;;;;33.47;11.50;;;;;;;9.40;41.30;100537.34;5082469;28;20016;-82
2022/03/24 06:08:52;;;;;;;35.80;12.15;;;;;;;9.80;41.08;100542.56;5082455;28;20099;-79
2022/03/24 06:11:18;;;;;;;31.85;10.73;;;;;;;10.11;40.86;100541.47;5082265;28;20029;-79
2022/03/24 06:13:45;;;;;;;29.60;11.50;;;;;;;10.70;39.75;100540.47;5082426;28;20238;-82
2022/03/24 06:16:13;;;;;;;29.25;10.48;;;;;;;11.09;39.00;100525.25;5085716;28;20059;-79
2022/03/24 06:18:39;;;;;;;28.73;12.75;;;;;;;11.38;38.71;100541.03;5087203;28;20048;-79
2022/03/24 06:21:05;;;;;;;32.50;11.90;;;;;;;11.68;38.87;100517.84;5083937;28;20609;-82
2022/03/24 06:23:31;;;;;;;33.45;11.18;;;;;;;12.28;37.39;100520.72;5085073;28;20103;-79
2022/03/24 06:25:56;;;;;;;34.35;10.07;;;;;;;12.73;36.82;100525.91;5087608;28;20271;-79
2022/03/24 06:28:22;;;;;;;34.00;9.88;;;;;;;12.87;36.42;100516.50;5085454;28;20110;-80
2022/03/24 06:30:48;;;;;;;36.03;10.75;;;;;;;13.14;36.31;100502.19;5086375;28;20031;-82
2022/03/24 06:33:16;;;;;;;34.50;11.90;;;;;;;13.60;35.55;100519.50;5088084;28;20248;-82
2022/03/24 06:35:43;;;;;;;34.50;11.15;;;;;;;13.85;35.52;100510.56;5081504;28;20024;-79
2022/03/24 06:38:09;;;;;;;25.40;10.63;;;;;;;14.10;35.25;100514.09;5080306;28;20025;-79
2022/03/24 06:40:34;;;;;;;29.98;10.23;;;;;;;14.58;34.83;100517.78;5080977;28;20239;-79
2022/03/24 06:43:00;;;;;;;22.55;9.82;;;;;;;14.85;34.11;100496.06;5085568;28;20036;-79
2022/03/24 06:45:25;;;;;;;25.67;9.57;;;;;;;15.11;33.37;100502.97;5082624;28;20314;-79
2022/03/24 06:47:51;;;;;;;24.10;8.43;;;;;;;15.18;32.71;100502.09;5086268;28;20052;-81
2022/03/24 06:50:16;;;;;;;27.33;8.00;;;;;;;14.68;31.46;100473.94;5092398;28;20107;-81
2022/03/24 06:52:43;;;;;;;37.85;10.35;;;;;;;14.81;31.39;100497.41;5087377;28;20039;-81
2022/03/24 06:55:10;;;;;;;28.70;8.15;;;;;;;15.25;30.56;100497.75;5089439;28;20222;-82
2022/03/24 06:57:37;;;;;;;19.77;6.60;;;;;;;15.19;30.14;100509.09;5090683;28;20088;-82
2022/03/24 07:00:07;;;;;;;19.08;7.10;;;;;;;14.96;30.02;100494.84;5092263;28;20024;-80
2022/03/24 07:02:33;;;;;;;15.50;6.68;;;;;;;15.32;29.78;100508.53;5088943;28;20115;-81
2022/03/24 07:04:58;;;;;;;14.57;6.20;;;;;;;15.44;29.56;100503.66;5091564;28;20020;-78
2022/03/24 07:07:26;;;;;;;18.42;6.70;;;;;;;15.63;29.54;100501.44;5091278;28;20032;-79
2022/03/24 07:09:51;;;;;;;21.75;6.47;;;;;;;15.51;28.80;100499.28;5088142;28;20033;-78
2022/03/24 07:12:20;;;;;;;20.55;6.28;;;;;;;15.52;28.46;100507.09;5089223;28;20020;-79
2022/03/24 07:14:46;;;;;;;33.42;6.78;;;;;;;15.52;28.53;100508.94;5087816;28;20114;-80
2022/03/24 07:17:12;;;;;;;17.83;6.28;;;;;;;15.79;28.56;100500.50;5090212;28;20369;-78
2022/03/24 07:19:37;;;;;;;14.85;6.13;;;;;;;15.69;28.40;100489.22;5103600;28;20338;-79
2022/03/24 07:22:03;;;;;;;76.30;26.23;;;;;;;15.83;28.35;100500.97;5101406;28;20075;-79
2022/03/24 07:24:29;;;;;;;53.15;12.32;;;;;;;16.00;28.61;100494.50;5087196;28;20036;-81
2022/03/24 07:26:54;;;;;;;25.17;7.70;;;;;;;15.91;28.20;100492.91;5088903;28;20345;-79
2022/03/24 07:29:20;;;;;;;20.73;6.45;;;;;;;16.07;28.37;100486.59;5087239;28;20085;-80
2022/03/24 07:31:45;;;;;;;24.08;7.40;;;;;;;16.35;27.59;100500.22;5090360;28;20125;-79
2022/03/24 07:34:11;;;;;;;26.38;7.28;;;;;;;16.24;28.20;100488.13;5095319;28;20036;-79
2022/03/24 07:36:37;;;;;;;17.98;5.90;;;;;;;16.45;28.46;100482.06;5096685;28;20039;-79
2022/03/24 07:39:03;;;;;;;26.08;7.53;;;;;;;16.79;27.61;100489.63;5097253;28;20069;-81
2022/03/24 07:41:29;;;;;;;23.23;6.22;;;;;;;17.06;27.35;100488.16;5094983;28;20035;-79
2022/03/24 07:43:55;;;;;;;20.33;6.57;;;;;;;17.17;27.72;100490.34;5097521;28;20024;-80
2022/03/24 07:46:20;;;;;;;20.65;6.45;;;;;;;17.69;26.81;100489.38;5097028;28;20076;-79
2022/03/24 07:48:48;;;;;;;28.05;7.43;;;;;;;17.83;26.55;100461.69;5094811;28;20039;-83
2022/03/24 07:51:14;;;;;;;18.35;5.95;;;;;;;17.85;26.71;100473.88;5095341;28;20024;-78
2022/03/24 07:53:48;;;;;;;18.70;6.20;;;;;;;17.78;26.22;100474.84;5096162;28;20059;-79
2022/03/24 07:56:19;;;;;;;15.65;5.88;;;;;;;18.03;26.53;100478.78;5094452;28;20061;-78
2022/03/24 07:58:45;;;;;;;17.30;5.97;;;;;;;18.06;26.69;100477.56;5094455;28;20024;-78
2022/03/24 08:01:12;;;;;;;21.25;5.95;;;;;;;17.70;26.91;100472.28;5101656;28;20067;-79
2022/03/24 08:03:38;;;;;;;18.65;6.25;;;;;;;17.69;26.59;100470.63;5094034;28;20041;-79
2022/03/24 08:06:04;;;;;;;20.42;5.95;;;;;;;17.86;26.91;100469.34;5095602;28;20035;-78
2022/03/24 08:08:30;;;;;;;13.15;5.95;;;;;;;17.73;27.05;100464.69;5095309;28;20263;-78
2022/03/24 08:10:56;;;;;;;18.60;6.32;;;;;;;17.94;26.85;100445.09;5094880;28;20027;-78
2022/03/24 08:13:23;;;;;;;21.55;6.28;;;;;;;18.20;26.53;100460.56;5096368;28;20028;-81
2022/03/24 08:15:49;;;;;;;21.15;5.85;;;;;;;18.08;25.95;100449.56;5095094;28;20032;-78
2022/03/24 08:18:16;;;;;;;18.55;7.00;;;;;;;18.41;26.04;100443.59;5094838;28;20032;-78
2022/03/24 08:20:43;;;;;;;24.10;6.63;;;;;;;18.71;26.37;100446.91;5094888;28;20038;-79
2022/03/24 08:23:10;;;;;;;22.02;6.03;;;;;;;18.69;25.73;100439.06;5096741;28;20058;-80
2022/03/24 08:25:38;;;;;;;12.75;5.55;;;;;;;18.56;25.90;100422.03;5095577;28;20028;-80
2022/03/24 08:28:04;;;;;;;19.38;6.60;;;;;;;18.68;25.17;100440.09;5096996;28;20051;-80
2022/03/24 08:30:30;;;;;;;16.30;6.20;;;;;;;18.67;25.34;100405.41;5095531;28;20079;-79
2022/03/24 08:32:55;;;;;;;16.10;5.97;;;;;;;18.93;25.33;100427.03;5094924;28;20065;-79
2022/03/24 08:35:21;;;;;;;16.35;5.45;;;;;;;18.98;25.30;100423.75;5096789;28;20052;-82
2022/03/24 08:37:47;;;;;;;17.63;6.40;;;;;;;19.09;24.79;100426.69;5094413;28;20028;-78
2022/03/24 08:40:12;;;;;;;25.65;6.68;;;;;;;19.28;24.59;100426.97;5094130;28;20032;-78
2022/03/24 08:42:39;;;;;;;14.35;6.25;;;;;;;19.32;24.61;100422.84;5096176;28;20059;-79
2022/03/24 08:45:07;;;;;;;18.30;6.40;;;;;;;19.43;23.93;100422.25;5094354;28;20040;-82
2022/03/24 08:47:33;;;;;;;12.50;5.43;;;;;;;19.40;24.06;100419.97;5094844;28;20020;-80
2022/03/24 08:49:59;;;;;;;24.10;7.03;;;;;;;19.11;24.31;100419.28;5095817;28;20062;-79
2022/03/24 08:52:27;;;;;;;17.42;6.63;;;;;;;18.93;24.47;100385.97;5093710;28;20326;-79
2022/03/24 08:54:53;;;;;;;21.70;7.32;;;;;;;19.32;24.99;100404.03;5095823;28;20191;-80
2022/03/24 08:57:25;;;;;;;17.77;6.60;;;;;;;19.41;24.61;100395.59;5093544;28;20044;-80
2022/03/24 08:59:51;;;;;;;21.55;6.60;;;;;;;19.42;24.53;100405.31;5093573;28;20059;-79
2022/03/24 09:02:17;;;;;;;20.80;6.43;;;;;;;19.57;22.49;100402.47;5094414;28;20330;-79
2022/03/24 09:04:42;;;;;;;18.10;6.57;;;;;;;19.65;22.87;100393.38;5095540;28;20361;-79
2022/03/24 09:07:08;;;;;;;15.60;6.80;;;;;;;19.77;22.39;100392.59;5093972;28;20028;-79
2022/03/24 09:09:33;;;;;;;18.15;6.68;;;;;;;19.87;21.53;100392.19;5090722;28;20045;-80
2022/03/24 09:11:59;;;;;;;13.18;6.93;;;;;;;20.02;21.35;100384.75;5094802;28;20024;-80
2022/03/24 09:14:24;;;;;;;20.45;6.72;;;;;;;20.04;22.04;100363.03;5093832;28;20043;-79
2022/03/24 09:16:50;;;;;;;17.35;6.25;;;;;;;20.00;21.71;100378.75;5095159;28;20031;-79
2022/03/24 09:19:15;;;;;;;29.17;7.80;;;;;;;20.16;21.17;100385.56;5094005;28;20024;-79
2022/03/24 09:21:41;;;;;;;29.92;8.05;;;;;;;20.28;21.64;100359.69;5093889;28;20032;-79
2022/03/24 09:24:06;;;;;;;15.48;7.00;;;;;;;20.15;21.16;100366.94;5094213;28;20074;-79
2022/03/24 09:26:32;;;;;;;27.65;7.32;;;;;;;20.24;21.47;100376.44;5094469;28;20230;-80
2022/03/24 09:28:59;;;;;;;13.60;6.68;;;;;;;20.33;21.16;100380.56;5092673;28;20028;-79
2022/03/24 09:31:25;;;;;;;19.98;7.45;;;;;;;19.95;21.57;100373.16;5095855;28;20042;-79
2022/03/24 09:33:50;;;;;;;27.80;7.90;;;;;;;19.73;21.86;100361.78;5094028;28;20048;-79
2022/03/24 09:36:16;;;;;;;17.58;7.45;;;;;;;20.05;21.22;100370.06;5093444;28;20028;-79
2022/03/24 09:38:41;;;;;;;20.38;7.63;;;;;;;20.15;21.59;100357.00;5093910;28;20039;-79
2022/03/24 09:41:07;;;;;;;19.38;7.30;;;;;;;19.98;20.37;100355.78;5092439;28;20318;-79
2022/03/24 09:43:36;;;;;;;21.63;8.50;;;;;;;19.82;20.31;100370.50;5093997;28;20032;-79
2022/03/24 09:46:03;;;;;;;24.88;12.43;;;;;;;19.81;20.94;100362.63;5093840;28;20035;-80
2022/03/24 09:48:28;;;;;;;15.35;8.15;;;;;;;19.82;20.36;100358.91;5094766;28;20066;-80
2022/03/24 09:50:54;;;;;;;17.40;7.60;;;;;;;19.72;19.78;100351.22;5094705;28;20024;-79
2022/03/24 09:53:20;;;;;;;25.58;10.88;;;;;;;19.63;20.14;100349.78;5095020;28;20069;-79
2022/03/24 09:55:47;;;;;;;14.70;7.22;;;;;;;19.45;19.37;100351.19;5092898;28;20037;-79
2022/03/24 09:58:13;;;;;;;55.20;10.15;;;;;;;19.04;20.74;100337.91;5093376;28;20032;-80
2022/03/24 10:00:39;;;;;;;17.08;6.95;;;;;;;18.91;20.19;100334.34;5095411;28;20300;-79
2022/03/24 10:03:12;;;;;;;21.02;7.22;;;;;;;19.13;20.52;100336.69;5093121;28;20317;-79
2022/03/24 10:05:54;;;;;;;16.77;7.38;;;;;;;19.02;20.48;100318.47;5093528;28;20218;-80
2022/03/24 10:08:20;;;;;;;20.33;8.27;;;;;;;19.05;20.86;100325.31;5093419;28;20036;-79
2022/03/24 10:10:45;;;;;;;17.40;7.88;;;;;;;19.19;20.73;100324.28;5094555;28;20032;-82
2022/03/24 10:13:10;;;;;;;17.42;7.95;;;;;;;19.10;20.76;100294.13;5093160;28;20218;-79
2022/03/24 10:15:38;;;;;;;35.83;8.30;;;;;;;19.27;20.87;100320.59;5093511;28;20230;-78
2022/03/24 10:18:03;;;;;;;17.05;7.45;;;;;;;19.33;20.84;100319.78;5093646;28;20071;-80
2022/03/24 10:20:30;;;;;;;22.50;8.07;;;;;;;19.40;21.46;100305.31;5095452;28;20028;-79
2022/03/24 10:23:01;;;;;;;24.33;7.40;;;;;;;19.32;20.64;100288.59;5097050;28;20020;-79
2022/03/24 10:25:31;;;;;;;40.63;7.97;;;;;;;19.41;21.29;100304.28;5094743;28;20016;-79
2022/03/24 10:28:10;;;;;;;20.80;7.50;;;;;;;19.61;20.96;100307.00;5099323;28;20040;-79
2022/03/24 10:30:48;;;;;;;17.17;7.80;;;;;;;19.54;20.67;100295.44;5098137;28;20028;-78
2022/03/24 10:33:33;;;;;;;18.70;8.07;;;;;;;19.61;20.64;100290.06;5099766;28;20270;-78
2022/03/24 10:36:19;;;;;;;19.33;8.75;;;;;;;19.71;20.61;100298.53;5098988;28;20024;-79
2022/03/24 10:38:51;;;;;;;17.38;6.88;;;;;;;19.73;20.37;100296.47;5096996;28;20960;-79
2022/03/24 10:41:25;;;;;;;16.42;8.38;;;;;;;19.74;20.71;100285.50;5098764;28;20106;-79
2022/03/24 10:43:53;;;;;;;15.07;7.30;;;;;;;19.72;21.18;100270.63;5096729;28;20037;-80
2022/03/24 10:46:20;;;;;;;17.80;7.72;;;;;;;19.56;20.25;100253.06;5097572;28;20045;-79
2022/03/24 10:48:50;;;;;;;22.88;7.60;;;;;;;19.76;20.41;100275.38;5098303;28;20218;-79
2022/03/24 10:51:25;;;;;;;25.75;11.98;;;;;;;19.73;19.92;100269.59;5097297;28;20020;-79
2022/03/24 10:53:51;;;;;;;19.90;8.27;;;;;;;19.63;20.87;100275.38;5097467;28;20112;-79
2022/03/24 10:56:29;;;;;;;18.80;8.73;;;;;;;19.59;20.26;100258.03;5096360;28;20091;-79
2022/03/24 10:59:02;;;;;;;20.80;9.65;;;;;;;19.68;20.57;100251.41;5097052;28;20035;-79
2022/03/24 11:01:30;;;;;;;43.53;10.20;;;;;;;19.75;20.24;100241.47;5096846;28;20047;-79
2022/03/24 11:03:55;;;;;;;15.13;7.63;;;;;;;19.41;19.72;100241.69;5099236;28;20191;-80
2022/03/24 11:06:24;;;;;;;17.90;8.20;;;;;;;19.62;20.53;100254.94;5096095;28;20039;-79
2022/03/24 11:08:59;;;;;;;23.75;7.32;;;;;;;19.89;20.32;100241.47;5096807;28;20047;-79
2022/03/24 11:11:25;;;;;;;16.73;7.53;;;;;;;19.85;19.68;100238.38;5097039;28;20070;-78
2022/03/24 11:13:56;;;;;;;19.85;9.25;;;;;;;19.79;20.09;100231.16;5098662;28;20111;-79
2022/03/24 11:16:24;;;;;;;22.52;8.20;;;;;;;19.39;18.69;100195.44;5095147;28;20059;-78
2022/03/24 11:18:52;;;;;;;29.45;9.10;;;;;;;19.36;19.94;100214.63;5095664;28;20032;-79
2022/03/24 11:21:20;;;;;;;65.32;13.57;;;;;;;19.68;18.89;100221.84;5097080;28;20036;-78